createdAt,value
2022-08-07T00:01:43.089Z,33.93
2022-08-07T00:06:29.623Z,34.42
2022-08-07T00:11:36.011Z,34.76
2022-08-07T00:16:50.388Z,34.78
2022-08-07T00:21:56.078Z,34.91
2022-08-07T00:27:07.136Z,34.90
2022-08-07T00:32:09.953Z,34.40
2022-08-07T00:37:18.499Z,34.33
2022-08-07T00:42:29.003Z,34.48
2022-08-07T00:48:08.090Z,34.83
2022-08-07T00:52:54.165Z,34.99
2022-08-07T00:57:56.375Z,35.26
2022-08-07T01:02:58.366Z,35.48
2022-08-07T01:08:00.417Z,35.86
2022-08-07T01:13:02.663Z,35.97
2022-08-07T01:18:06.175Z,36.03
2022-08-07T01:23:15.165Z,36.39
2022-08-07T01:28:17.744Z,36.21
2022-08-07T01:33:23.616Z,36.21
2022-08-07T01:38:34.594Z,35.97
2022-08-07T01:43:47.500Z,36.16
2022-08-07T01:48:49.709Z,36.28
2022-08-07T01:54:11.881Z,36.79
2022-08-07T01:59:30.986Z,37.08
2022-08-07T02:04:58.492Z,36.64
2022-08-07T02:10:06.518Z,36.32
2022-08-07T02:15:14.396Z,36.27
2022-08-07T02:20:23.760Z,36.33
2022-08-07T02:26:10.838Z,36.54
2022-08-07T02:30:54.954Z,37.11
2022-08-07T02:36:30.962Z,37.12
2022-08-07T02:41:23.114Z,36.81
2022-08-07T02:46:38.144Z,36.75
2022-08-07T02:51:52.668Z,37.47
2022-08-07T02:57:00.374Z,37.65
2022-08-07T03:02:03.156Z,37.54
2022-08-07T03:07:10.384Z,37.77
2022-08-07T03:12:22.390Z,37.49
2022-08-07T03:17:54.093Z,37.94
2022-08-07T03:22:59.743Z,38.38
2022-08-07T03:28:09.488Z,38.50
2022-08-07T03:33:32.254Z,38.70
2022-08-07T03:38:45.570Z,38.98
2022-08-07T03:43:56.877Z,39.08
2022-08-07T03:49:03.943Z,38.80
2022-08-07T03:54:35.786Z,39.17
2022-08-07T03:59:46.588Z,38.66
2022-08-07T04:05:06.113Z,38.91
2022-08-07T04:10:15.443Z,39.34
2022-08-07T04:15:23.859Z,39.26
2022-08-07T04:20:27.185Z,39.19
2022-08-07T04:25:31.051Z,39.08
2022-08-07T04:30:55.247Z,38.98
2022-08-07T04:36:06.637Z,39.07
2022-08-07T04:41:10.444Z,39.01
2022-08-07T04:46:53.945Z,38.73
2022-08-07T04:52:18.382Z,38.63
2022-08-07T04:58:11.332Z,38.21
2022-08-07T05:03:31.171Z,38.30
2022-08-07T05:09:01.121Z,38.18
2022-08-07T05:14:52.380Z,38.16
2022-08-07T05:19:48.503Z,38.18
2022-08-07T05:24:52.151Z,38.07
2022-08-07T05:29:56.689Z,37.85
2022-08-07T05:34:59.999Z,37.99
2022-08-07T05:40:13.581Z,38.11
2022-08-07T05:45:46.140Z,37.81
2022-08-07T05:50:50.575Z,37.81
2022-08-07T05:56:02.325Z,37.77
2022-08-07T06:01:12.548Z,37.68
2022-08-07T06:06:20.608Z,37.34
2022-08-07T06:11:25.535Z,37.11
2022-08-07T06:16:31.725Z,37.04
2022-08-07T06:22:14.545Z,37.23
2022-08-07T06:26:58.255Z,36.71
2022-08-07T06:32:01.507Z,36.58
2022-08-07T06:37:04.497Z,35.79
2022-08-07T06:42:19.569Z,35.75
2022-08-07T06:47:57.667Z,35.77
2022-08-07T06:54:11.527Z,35.57
2022-08-07T06:58:32.102Z,35.11
2022-08-07T07:03:49.901Z,34.85
2022-08-07T07:09:36.371Z,34.60
2022-08-07T07:15:08.582Z,34.24
2022-08-07T07:20:31.878Z,33.97
2022-08-07T07:26:35.419Z,33.54
2022-08-07T07:31:04.101Z,33.13
2022-08-07T07:36:12.799Z,33.14
2022-08-07T07:41:17.877Z,32.82
2022-08-07T07:46:37.635Z,32.31
2022-08-07T07:51:58.232Z,31.71
2022-08-07T07:57:01.809Z,31.34
2022-08-07T08:02:10.651Z,30.99
2022-08-07T08:07:15.389Z,30.72
2022-08-07T08:12:50.099Z,30.09
2022-08-07T08:17:57.249Z,29.64
2022-08-07T08:23:20.737Z,29.30
2022-08-07T08:28:38.714Z,28.83
2022-08-07T08:33:42.423Z,28.63
2022-08-07T08:38:51.860Z,27.97
2022-08-07T08:44:29.344Z,27.16
2022-08-07T08:50:05.335Z,27.19
2022-08-07T08:55:53.713Z,26.55
2022-08-07T09:00:51.806Z,26.26
2022-08-07T09:06:04.231Z,25.55
2022-08-07T09:11:11.593Z,25.71
2022-08-07T09:16:29.764Z,25.62
2022-08-07T09:24:28.255Z,25.38
2022-08-07T09:28:02.020Z,25.39
2022-08-07T09:33:52.783Z,25.46
2022-08-07T09:39:11.370Z,25.03
2022-08-07T09:50:34.411Z,24.76
2022-08-07T09:56:04.678Z,24.92
2022-08-07T10:01:51.762Z,24.57
2022-08-07T10:07:34.483Z,24.52
2022-08-07T10:13:29.799Z,24.30
2022-08-07T10:18:57.378Z,23.96
2022-08-07T10:24:22.043Z,23.84
2022-08-07T10:30:12.078Z,23.80
2022-08-07T10:35:55.870Z,23.63
2022-08-07T10:41:09.522Z,23.74
2022-08-07T10:46:26.023Z,23.37
2022-08-07T10:52:01.501Z,23.21
2022-08-07T10:57:34.827Z,23.00
2022-08-07T11:03:03.420Z,22.84
2022-08-07T11:08:40.378Z,22.35
2022-08-07T11:14:45.146Z,22.29
2022-08-07T11:19:53.119Z,21.92
2022-08-07T11:25:14.838Z,22.21
2022-08-07T11:30:39.160Z,21.74
2022-08-07T11:36:00.223Z,21.49
2022-08-07T11:41:28.353Z,21.28
2022-08-07T11:47:05.210Z,21.22
2022-08-07T11:52:29.135Z,20.92
2022-08-07T11:58:01.552Z,21.11
2022-08-07T12:03:41.555Z,20.68
2022-08-07T12:09:22.440Z,20.41
2022-08-07T12:14:35.162Z,20.52
2022-08-07T12:19:56.306Z,20.38
2022-08-07T12:26:22.057Z,19.98
2022-08-07T12:31:09.358Z,19.81
2022-08-07T12:36:15.955Z,20.11
2022-08-07T12:41:21.795Z,19.62
2022-08-07T12:46:50.913Z,19.31
2022-08-07T12:52:17.182Z,19.09
2022-08-07T12:57:38.714Z,19.20
2022-08-07T13:03:06.988Z,19.29
2022-08-07T13:08:26.749Z,19.19
2022-08-07T13:13:48.647Z,19.31
2022-08-07T13:19:04.568Z,19.35
2022-08-07T13:24:25.661Z,19.11
2022-08-07T13:29:42.464Z,19.04
2022-08-07T13:35:08.390Z,19.38
2022-08-07T13:40:41.737Z,19.47
2022-08-07T13:46:12.157Z,19.23
2022-08-07T13:51:27.235Z,19.05
2022-08-07T13:56:40.842Z,18.62
2022-08-07T14:02:05.363Z,19.11
2022-08-07T14:07:11.319Z,18.85
2022-08-07T14:12:28.232Z,19.40
2022-08-07T14:18:24.041Z,19.14
2022-08-07T14:23:59.099Z,19.41
2022-08-07T14:28:55.993Z,19.04
2022-08-07T14:34:07.340Z,19.18
2022-08-07T14:40:16.671Z,19.04
2022-08-07T14:44:40.732Z,19.33
2022-08-07T14:49:57.020Z,19.34
2022-08-07T14:55:02.933Z,19.27
2022-08-07T15:00:08.372Z,19.55
2022-08-07T15:10:59.076Z,19.45
2022-08-07T15:21:58.496Z,19.85
2022-08-07T15:27:19.906Z,19.53
2022-08-07T15:43:33.313Z,19.42
2022-08-07T15:54:11.968Z,19.75
2022-08-07T15:59:17.224Z,19.79
2022-08-07T16:04:20.910Z,19.75
2022-08-07T16:09:41.149Z,19.86
2022-08-07T16:15:05.933Z,19.92
2022-08-07T16:20:33.755Z,19.85
2022-08-07T16:25:59.583Z,19.98
2022-08-07T16:32:00.694Z,19.75
2022-08-07T16:38:03.891Z,19.84
2022-08-07T16:42:52.739Z,19.89
2022-08-07T16:48:15.156Z,19.72
2022-08-07T16:54:02.837Z,20.02
2022-08-07T16:59:24.626Z,19.79
2022-08-07T17:06:01.448Z,19.83
2022-08-07T17:10:54.759Z,19.99
2022-08-07T17:16:12.131Z,19.96
2022-08-07T17:21:19.076Z,20.12
2022-08-07T17:26:50.888Z,20.01
2022-08-07T17:32:30.526Z,20.19
2022-08-07T17:38:06.243Z,20.33
2022-08-07T17:43:18.481Z,20.45
2022-08-07T17:48:31.171Z,20.58
2022-08-07T17:54:02.026Z,20.62
2022-08-07T17:59:23.665Z,20.88
2022-08-07T18:04:34.424Z,21.03
2022-08-07T18:10:04.437Z,21.00
2022-08-07T18:15:11.469Z,21.01
2022-08-07T18:21:10.626Z,21.15
2022-08-07T18:25:48.591Z,21.35
2022-08-07T18:31:18.782Z,21.33
2022-08-07T18:36:33.788Z,21.90
2022-08-07T18:42:12.928Z,22.17
2022-08-07T18:47:26.395Z,22.20
2022-08-07T18:53:10.891Z,22.75
2022-08-07T18:58:51.092Z,23.12
2022-08-07T19:04:02.224Z,23.28
2022-08-07T19:09:56.292Z,23.46
2022-08-07T19:14:52.143Z,23.93
2022-08-07T19:20:29.258Z,23.97
2022-08-07T19:26:23.726Z,24.23
2022-08-07T19:31:37.172Z,24.46
2022-08-07T19:36:44.533Z,24.34
2022-08-07T19:42:08.115Z,24.49
2022-08-07T19:47:27.043Z,24.50
2022-08-07T19:52:31.198Z,24.69
2022-08-07T19:58:00.786Z,24.64
2022-08-07T20:03:35.454Z,24.65
2022-08-07T20:08:41.573Z,25.10
2022-08-07T20:13:55.214Z,25.30
2022-08-07T20:19:00.359Z,25.30
2022-08-07T20:24:06.678Z,25.67
2022-08-07T20:29:16.999Z,25.29
2022-08-07T20:34:50.244Z,25.74
2022-08-07T20:40:03.240Z,25.96
2022-08-07T20:45:33.771Z,25.97
2022-08-07T20:50:31.795Z,26.34
2022-08-07T20:55:37.249Z,26.36
2022-08-07T21:00:46.422Z,26.46
2022-08-07T21:05:56.245Z,26.48
2022-08-07T21:11:02.794Z,26.52
2022-08-07T21:16:08.617Z,26.55
2022-08-07T21:21:10.923Z,26.63
2022-08-07T21:26:30.980Z,26.71
2022-08-07T21:32:44.101Z,26.67
2022-08-07T21:37:58.383Z,26.99
2022-08-07T21:43:03.659Z,27.06
2022-08-07T21:48:27.718Z,27.23
2022-08-07T21:53:53.177Z,27.28
2022-08-07T21:59:08.354Z,27.50
2022-08-07T22:04:20.263Z,27.62
2022-08-07T22:09:26.468Z,27.82
2022-08-07T22:14:59.313Z,28.00
2022-08-07T22:20:31.634Z,28.15
2022-08-07T22:25:56.837Z,28.28
2022-08-07T22:31:06.994Z,28.43
2022-08-07T22:36:30.851Z,28.47
2022-08-07T22:42:03.958Z,28.67
2022-08-07T22:47:27.321Z,28.86
2022-08-07T22:52:57.245Z,29.10
2022-08-07T22:58:38.318Z,29.11
2022-08-07T23:04:06.662Z,29.36
2022-08-07T23:10:05.219Z,29.53
2022-08-07T23:15:02.149Z,29.62
2022-08-07T23:20:51.485Z,29.63
2022-08-07T23:26:13.342Z,29.93
2022-08-07T23:32:48.626Z,30.25
2022-08-07T23:37:22.365Z,30.39
2022-08-07T23:42:46.399Z,30.53
2022-08-07T23:48:01.712Z,30.83
2022-08-07T23:53:49.942Z,31.12
2022-08-07T23:59:10.748Z,31.14
